Detmold, Texas
Current Conditions -  °F | °C
As of 10:58 PM on Monday 26 Jan 2015 (Local Time) from KGRK Reporting Station
Clear Clear  
Wind Chill: 60°   Ceiling: Unl
Heat Index: 60°   Visibility: 10mi
Dew Point: 36°   Wind: 10mph
Humidity: 40%   Direction: 270°W
Pressure: 30.14"   Gusts: NA
Location:  30.5951°N, 97.1399°W
Report Text: KGRK 270458Z AUTO 27009KT 10SM CLR 16/02 A3014 RMK AO2 SLP203 T01580022
Loading
Personal Weather Stations






























Interactive Weather Map New forecast layout! Learn more

10-Day Weather Forecast

Advertisements
Track Severe Weather on mobile